sensor_id;sensor_type;location;lat;lon;timestamp;P1;durP1;ratioP1;P2;durP2;ratioP2
69822;SDS011;57119;52.516;13.508;2023-03-21T00:01:31;11.83;;;5.13;;
69822;SDS011;57119;52.516;13.508;2023-03-21T00:03:56;12.00;;;5.97;;
69822;SDS011;57119;52.516;13.508;2023-03-21T00:06:22;12.90;;;5.60;;
69822;SDS011;57119;52.516;13.508;2023-03-21T00:08:47;12.67;;;5.13;;
69822;SDS011;57119;52.516;13.508;2023-03-21T00:11:12;11.13;;;5.33;;
69822;SDS011;57119;52.516;13.508;2023-03-21T00:13:38;12.57;;;5.23;;
69822;SDS011;57119;52.516;13.508;2023-03-21T00:16:17;11.80;;;5.47;;
69822;SDS011;57119;52.516;13.508;2023-03-21T00:18:43;10.75;;;5.07;;
69822;SDS011;57119;52.516;13.508;2023-03-21T00:21:12;11.50;;;5.15;;
69822;SDS011;57119;52.516;13.508;2023-03-21T00:23:43;11.43;;;4.80;;
69822;SDS011;57119;52.516;13.508;2023-03-21T00:26:10;12.00;;;6.03;;
69822;SDS011;57119;52.516;13.508;2023-03-21T00:28:36;9.80;;;5.05;;
69822;SDS011;57119;52.516;13.508;2023-03-21T00:31:06;11.75;;;5.63;;
69822;SDS011;57119;52.516;13.508;2023-03-21T00:33:32;10.18;;;5.65;;
69822;SDS011;57119;52.516;13.508;2023-03-21T00:35:58;12.60;;;5.70;;
69822;SDS011;57119;52.516;13.508;2023-03-21T00:38:24;11.05;;;5.25;;
69822;SDS011;57119;52.516;13.508;2023-03-21T00:40:49;13.37;;;5.60;;
69822;SDS011;57119;52.516;13.508;2023-03-21T00:43:15;13.57;;;5.35;;
69822;SDS011;57119;52.516;13.508;2023-03-21T00:45:43;12.38;;;4.93;;
69822;SDS011;57119;52.516;13.508;2023-03-21T00:48:10;14.37;;;5.43;;
69822;SDS011;57119;52.516;13.508;2023-03-21T00:50:36;11.63;;;5.93;;
69822;SDS011;57119;52.516;13.508;2023-03-21T00:53:03;14.00;;;6.20;;
69822;SDS011;57119;52.516;13.508;2023-03-21T00:55:29;12.00;;;5.90;;
69822;SDS011;57119;52.516;13.508;2023-03-21T00:57:54;12.50;;;5.80;;
69822;SDS011;57119;52.516;13.508;2023-03-21T01:00:20;14.90;;;5.33;;
69822;SDS011;57119;52.516;13.508;2023-03-21T01:02:46;12.10;;;6.00;;
69822;SDS011;57119;52.516;13.508;2023-03-21T01:05:25;13.63;;;5.90;;
69822;SDS011;57119;52.516;13.508;2023-03-21T01:08:11;10.52;;;5.50;;
69822;SDS011;57119;52.516;13.508;2023-03-21T01:10:39;12.30;;;6.03;;
69822;SDS011;57119;52.516;13.508;2023-03-21T01:13:05;13.85;;;5.68;;
69822;SDS011;57119;52.516;13.508;2023-03-21T01:15:31;13.25;;;6.18;;
69822;SDS011;57119;52.516;13.508;2023-03-21T01:17:56;12.23;;;6.10;;
69822;SDS011;57119;52.516;13.508;2023-03-21T01:20:22;12.93;;;6.00;;
69822;SDS011;57119;52.516;13.508;2023-03-21T01:22:47;16.20;;;6.40;;
69822;SDS011;57119;52.516;13.508;2023-03-21T01:25:13;12.35;;;5.85;;
69822;SDS011;57119;52.516;13.508;2023-03-21T01:27:38;16.63;;;6.17;;
69822;SDS011;57119;52.516;13.508;2023-03-21T01:30:04;13.90;;;6.60;;
69822;SDS011;57119;52.516;13.508;2023-03-21T01:32:30;12.27;;;5.72;;
69822;SDS011;57119;52.516;13.508;2023-03-21T01:34:55;13.23;;;7.30;;
69822;SDS011;57119;52.516;13.508;2023-03-21T01:37:21;15.60;;;6.95;;
69822;SDS011;57119;52.516;13.508;2023-03-21T01:39:46;15.70;;;7.87;;
69822;SDS011;57119;52.516;13.508;2023-03-21T01:42:12;16.63;;;9.30;;
69822;SDS011;57119;52.516;13.508;2023-03-21T01:47:54;18.83;;;9.63;;
69822;SDS011;57119;52.516;13.508;2023-03-21T01:50:20;19.20;;;10.60;;
69822;SDS011;57119;52.516;13.508;2023-03-21T01:52:46;22.23;;;10.18;;
69822;SDS011;57119;52.516;13.508;2023-03-21T01:55:16;20.00;;;10.65;;
69822;SDS011;57119;52.516;13.508;2023-03-21T01:57:46;17.65;;;10.30;;
69822;SDS011;57119;52.516;13.508;2023-03-21T02:00:18;20.88;;;10.52;;
69822;SDS011;57119;52.516;13.508;2023-03-21T02:02:45;17.10;;;9.87;;
69822;SDS011;57119;52.516;13.508;2023-03-21T02:05:21;21.13;;;11.10;;
69822;SDS011;57119;52.516;13.508;2023-03-21T02:07:52;19.17;;;10.05;;
69822;SDS011;57119;52.516;13.508;2023-03-21T02:10:18;21.33;;;11.30;;
69822;SDS011;57119;52.516;13.508;2023-03-21T02:12:44;19.70;;;11.30;;
69822;SDS011;57119;52.516;13.508;2023-03-21T02:15:10;22.27;;;11.70;;
69822;SDS011;57119;52.516;13.508;2023-03-21T02:17:42;20.92;;;11.98;;
69822;SDS011;57119;52.516;13.508;2023-03-21T02:39:41;25.67;;;14.00;;
69822;SDS011;57119;52.516;13.508;2023-03-21T02:45:01;27.67;;;15.15;;
69822;SDS011;57119;52.516;13.508;2023-03-21T02:47:37;28.55;;;15.23;;
69822;SDS011;57119;52.516;13.508;2023-03-21T02:52:36;28.27;;;15.40;;
69822;SDS011;57119;52.516;13.508;2023-03-21T02:55:03;28.37;;;16.30;;
69822;SDS011;57119;52.516;13.508;2023-03-21T02:57:32;34.03;;;15.95;;
69822;SDS011;57119;52.516;13.508;2023-03-21T02:59:57;26.85;;;16.02;;
69822;SDS011;57119;52.516;13.508;2023-03-21T03:02:25;26.80;;;16.23;;
69822;SDS011;57119;52.516;13.508;2023-03-21T03:04:52;28.33;;;16.42;;
69822;SDS011;57119;52.516;13.508;2023-03-21T03:10:07;31.13;;;17.05;;
69822;SDS011;57119;52.516;13.508;2023-03-21T03:12:48;27.40;;;15.40;;
69822;SDS011;57119;52.516;13.508;2023-03-21T03:18:35;29.37;;;15.60;;
69822;SDS011;57119;52.516;13.508;2023-03-21T03:24:00;32.92;;;16.13;;
69822;SDS011;57119;52.516;13.508;2023-03-21T03:26:32;29.15;;;15.27;;
69822;SDS011;57119;52.516;13.508;2023-03-21T03:29:03;31.02;;;16.55;;
69822;SDS011;57119;52.516;13.508;2023-03-21T03:31:32;25.87;;;15.47;;
69822;SDS011;57119;52.516;13.508;2023-03-21T03:34:06;29.30;;;15.80;;
69822;SDS011;57119;52.516;13.508;2023-03-21T03:36:37;30.17;;;16.35;;
69822;SDS011;57119;52.516;13.508;2023-03-21T03:39:06;33.05;;;16.00;;
69822;SDS011;57119;52.516;13.508;2023-03-21T03:41:36;28.83;;;15.88;;
69822;SDS011;57119;52.516;13.508;2023-03-21T03:44:08;26.97;;;15.73;;
69822;SDS011;57119;52.516;13.508;2023-03-21T03:46:38;31.35;;;16.95;;
69822;SDS011;57119;52.516;13.508;2023-03-21T03:49:13;28.08;;;16.15;;
69822;SDS011;57119;52.516;13.508;2023-03-21T03:54:15;36.35;;;17.00;;
69822;SDS011;57119;52.516;13.508;2023-03-21T03:56:44;33.83;;;17.67;;
69822;SDS011;57119;52.516;13.508;2023-03-21T03:59:10;31.27;;;16.13;;
69822;SDS011;57119;52.516;13.508;2023-03-21T04:01:36;30.87;;;16.57;;
69822;SDS011;57119;52.516;13.508;2023-03-21T04:04:01;34.83;;;16.90;;
69822;SDS011;57119;52.516;13.508;2023-03-21T04:06:27;30.15;;;15.75;;
69822;SDS011;57119;52.516;13.508;2023-03-21T04:08:53;32.83;;;17.20;;
69822;SDS011;57119;52.516;13.508;2023-03-21T04:11:20;37.72;;;17.73;;
69822;SDS011;57119;52.516;13.508;2023-03-21T04:13:46;36.28;;;17.95;;
69822;SDS011;57119;52.516;13.508;2023-03-21T04:16:12;34.67;;;16.60;;
69822;SDS011;57119;52.516;13.508;2023-03-21T04:18:38;35.65;;;18.95;;
69822;SDS011;57119;52.516;13.508;2023-03-21T04:21:08;36.00;;;18.73;;
69822;SDS011;57119;52.516;13.508;2023-03-21T04:23:35;32.95;;;17.10;;
69822;SDS011;57119;52.516;13.508;2023-03-21T04:26:01;34.53;;;17.93;;
69822;SDS011;57119;52.516;13.508;2023-03-21T04:28:27;36.93;;;17.20;;
69822;SDS011;57119;52.516;13.508;2023-03-21T04:30:52;36.77;;;17.67;;
69822;SDS011;57119;52.516;13.508;2023-03-21T04:33:21;31.10;;;16.58;;
69822;SDS011;57119;52.516;13.508;2023-03-21T04:35:49;33.92;;;17.20;;
69822;SDS011;57119;52.516;13.508;2023-03-21T04:38:20;35.78;;;17.40;;
69822;SDS011;57119;52.516;13.508;2023-03-21T04:40:46;35.70;;;17.48;;
69822;SDS011;57119;52.516;13.508;2023-03-21T04:43:12;34.47;;;17.00;;
69822;SDS011;57119;52.516;13.508;2023-03-21T04:45:37;33.83;;;17.73;;
69822;SDS011;57119;52.516;13.508;2023-03-21T04:48:02;36.07;;;17.77;;
69822;SDS011;57119;52.516;13.508;2023-03-21T04:50:28;33.92;;;18.00;;
69822;SDS011;57119;52.516;13.508;2023-03-21T04:52:53;30.57;;;16.03;;
69822;SDS011;57119;52.516;13.508;2023-03-21T04:55:19;32.50;;;16.13;;
69822;SDS011;57119;52.516;13.508;2023-03-21T04:57:45;31.67;;;15.85;;
69822;SDS011;57119;52.516;13.508;2023-03-21T05:00:11;30.87;;;16.10;;
69822;SDS011;57119;52.516;13.508;2023-03-21T05:02:40;31.75;;;15.75;;
69822;SDS011;57119;52.516;13.508;2023-03-21T05:05:05;34.53;;;16.70;;
69822;SDS011;57119;52.516;13.508;2023-03-21T05:07:35;35.80;;;16.95;;
69822;SDS011;57119;52.516;13.508;2023-03-21T05:10:01;30.50;;;15.77;;
69822;SDS011;57119;52.516;13.508;2023-03-21T05:12:27;30.70;;;16.45;;
69822;SDS011;57119;52.516;13.508;2023-03-21T05:14:52;32.00;;;15.83;;
69822;SDS011;57119;52.516;13.508;2023-03-21T05:17:18;34.93;;;15.90;;
69822;SDS011;57119;52.516;13.508;2023-03-21T05:19:47;37.03;;;16.08;;
69822;SDS011;57119;52.516;13.508;2023-03-21T05:22:15;39.65;;;18.85;;
69822;SDS011;57119;52.516;13.508;2023-03-21T05:24:43;30.50;;;15.37;;
69822;SDS011;57119;52.516;13.508;2023-03-21T05:27:14;32.78;;;14.63;;
69822;SDS011;57119;52.516;13.508;2023-03-21T05:30:15;36.67;;;16.50;;
69822;SDS011;57119;52.516;13.508;2023-03-21T05:32:41;32.83;;;16.30;;
69822;SDS011;57119;52.516;13.508;2023-03-21T05:35:07;30.97;;;15.17;;
69822;SDS011;57119;52.516;13.508;2023-03-21T05:37:33;37.35;;;17.52;;
69822;SDS011;57119;52.516;13.508;2023-03-21T05:39:59;35.93;;;16.67;;
69822;SDS011;57119;52.516;13.508;2023-03-21T05:42:24;33.35;;;16.92;;
69822;SDS011;57119;52.516;13.508;2023-03-21T05:44:50;33.17;;;16.63;;
69822;SDS011;57119;52.516;13.508;2023-03-21T05:47:16;37.17;;;16.73;;
69822;SDS011;57119;52.516;13.508;2023-03-21T05:49:42;33.83;;;18.05;;
69822;SDS011;57119;52.516;13.508;2023-03-21T05:52:08;35.22;;;17.85;;
69822;SDS011;57119;52.516;13.508;2023-03-21T05:54:33;32.70;;;16.60;;
69822;SDS011;57119;52.516;13.508;2023-03-21T05:57:00;37.05;;;16.38;;
69822;SDS011;57119;52.516;13.508;2023-03-21T05:59:25;33.05;;;15.68;;
69822;SDS011;57119;52.516;13.508;2023-03-21T06:01:51;34.33;;;16.53;;
69822;SDS011;57119;52.516;13.508;2023-03-21T06:04:16;31.87;;;16.80;;
69822;SDS011;57119;52.516;13.508;2023-03-21T06:06:42;32.63;;;15.93;;
69822;SDS011;57119;52.516;13.508;2023-03-21T06:09:08;36.90;;;17.70;;
69822;SDS011;57119;52.516;13.508;2023-03-21T06:11:35;32.00;;;16.87;;
69822;SDS011;57119;52.516;13.508;2023-03-21T06:14:01;34.03;;;17.15;;
69822;SDS011;57119;52.516;13.508;2023-03-21T06:16:27;30.85;;;16.25;;
69822;SDS011;57119;52.516;13.508;2023-03-21T06:18:53;33.13;;;17.33;;
69822;SDS011;57119;52.516;13.508;2023-03-21T06:21:20;32.33;;;16.48;;
69822;SDS011;57119;52.516;13.508;2023-03-21T06:23:45;33.55;;;17.20;;
69822;SDS011;57119;52.516;13.508;2023-03-21T06:26:11;32.83;;;17.08;;
69822;SDS011;57119;52.516;13.508;2023-03-21T06:28:37;32.23;;;15.93;;
69822;SDS011;57119;52.516;13.508;2023-03-21T06:31:03;35.63;;;17.65;;
69822;SDS011;57119;52.516;13.508;2023-03-21T06:33:29;34.22;;;15.88;;
69822;SDS011;57119;52.516;13.508;2023-03-21T06:35:55;34.57;;;16.40;;
69822;SDS011;57119;52.516;13.508;2023-03-21T06:38:22;33.33;;;17.02;;
69822;SDS011;57119;52.516;13.508;2023-03-21T06:40:48;36.13;;;17.00;;
69822;SDS011;57119;52.516;13.508;2023-03-21T06:43:14;33.25;;;17.02;;
69822;SDS011;57119;52.516;13.508;2023-03-21T06:45:43;32.20;;;16.98;;
69822;SDS011;57119;52.516;13.508;2023-03-21T06:48:08;34.90;;;17.03;;
69822;SDS011;57119;52.516;13.508;2023-03-21T06:50:34;35.90;;;17.17;;
69822;SDS011;57119;52.516;13.508;2023-03-21T06:52:59;42.20;;;17.13;;
69822;SDS011;57119;52.516;13.508;2023-03-21T06:55:25;39.05;;;18.05;;
69822;SDS011;57119;52.516;13.508;2023-03-21T06:57:52;35.03;;;17.23;;
69822;SDS011;57119;52.516;13.508;2023-03-21T07:00:18;35.65;;;17.27;;
69822;SDS011;57119;52.516;13.508;2023-03-21T07:02:45;35.08;;;17.30;;
69822;SDS011;57119;52.516;13.508;2023-03-21T07:05:10;34.47;;;16.00;;
69822;SDS011;57119;52.516;13.508;2023-03-21T07:07:36;35.85;;;18.05;;
69822;SDS011;57119;52.516;13.508;2023-03-21T07:10:02;34.83;;;17.98;;
69822;SDS011;57119;52.516;13.508;2023-03-21T07:12:28;33.93;;;17.50;;
69822;SDS011;57119;52.516;13.508;2023-03-21T07:14:54;40.65;;;17.50;;
69822;SDS011;57119;52.516;13.508;2023-03-21T07:17:19;35.77;;;17.47;;
69822;SDS011;57119;52.516;13.508;2023-03-21T07:19:44;33.63;;;16.53;;
69822;SDS011;57119;52.516;13.508;2023-03-21T07:22:10;38.17;;;18.37;;
69822;SDS011;57119;52.516;13.508;2023-03-21T07:24:35;40.85;;;19.08;;
69822;SDS011;57119;52.516;13.508;2023-03-21T07:27:00;41.67;;;18.90;;
69822;SDS011;57119;52.516;13.508;2023-03-21T07:29:26;38.80;;;18.33;;
69822;SDS011;57119;52.516;13.508;2023-03-21T07:31:51;41.03;;;19.87;;
69822;SDS011;57119;52.516;13.508;2023-03-21T07:34:17;38.42;;;17.50;;
69822;SDS011;57119;52.516;13.508;2023-03-21T07:36:42;40.30;;;18.37;;
69822;SDS011;57119;52.516;13.508;2023-03-21T07:39:08;40.03;;;19.23;;
69822;SDS011;57119;52.516;13.508;2023-03-21T07:41:33;41.75;;;18.45;;
69822;SDS011;57119;52.516;13.508;2023-03-21T07:43:59;40.73;;;18.83;;
69822;SDS011;57119;52.516;13.508;2023-03-21T07:46:24;35.57;;;17.17;;
69822;SDS011;57119;52.516;13.508;2023-03-21T07:48:50;39.75;;;18.20;;
69822;SDS011;57119;52.516;13.508;2023-03-21T07:51:15;37.43;;;17.97;;
69822;SDS011;57119;52.516;13.508;2023-03-21T07:53:41;42.33;;;18.93;;
69822;SDS011;57119;52.516;13.508;2023-03-21T07:56:07;39.67;;;18.88;;
69822;SDS011;57119;52.516;13.508;2023-03-21T07:58:33;38.40;;;17.77;;
69822;SDS011;57119;52.516;13.508;2023-03-21T08:00:59;37.50;;;18.63;;
69822;SDS011;57119;52.516;13.508;2023-03-21T08:03:26;39.25;;;17.67;;
69822;SDS011;57119;52.516;13.508;2023-03-21T08:05:53;36.05;;;17.60;;
69822;SDS011;57119;52.516;13.508;2023-03-21T08:08:19;38.45;;;18.60;;
69822;SDS011;57119;52.516;13.508;2023-03-21T08:10:45;39.33;;;19.40;;
69822;SDS011;57119;52.516;13.508;2023-03-21T08:13:10;40.57;;;18.13;;
69822;SDS011;57119;52.516;13.508;2023-03-21T08:15:36;38.60;;;16.98;;
69822;SDS011;57119;52.516;13.508;2023-03-21T08:18:03;39.67;;;18.13;;
69822;SDS011;57119;52.516;13.508;2023-03-21T08:20:29;36.15;;;17.27;;
69822;SDS011;57119;52.516;13.508;2023-03-21T08:22:54;38.83;;;18.00;;
69822;SDS011;57119;52.516;13.508;2023-03-21T08:25:20;39.30;;;18.43;;
69822;SDS011;57119;52.516;13.508;2023-03-21T08:27:46;40.47;;;18.90;;
69822;SDS011;57119;52.516;13.508;2023-03-21T08:30:14;40.15;;;18.77;;
69822;SDS011;57119;52.516;13.508;2023-03-21T08:32:42;37.70;;;18.83;;
69822;SDS011;57119;52.516;13.508;2023-03-21T08:35:09;33.20;;;17.30;;
69822;SDS011;57119;52.516;13.508;2023-03-21T08:37:36;40.95;;;18.75;;
69822;SDS011;57119;52.516;13.508;2023-03-21T08:40:03;38.67;;;18.05;;
69822;SDS011;57119;52.516;13.508;2023-03-21T08:42:32;39.55;;;18.77;;
69822;SDS011;57119;52.516;13.508;2023-03-21T08:44:57;35.67;;;16.63;;
69822;SDS011;57119;52.516;13.508;2023-03-21T08:47:23;38.53;;;18.10;;
69822;SDS011;57119;52.516;13.508;2023-03-21T08:49:48;33.97;;;17.13;;
69822;SDS011;57119;52.516;13.508;2023-03-21T08:52:14;33.90;;;17.02;;
69822;SDS011;57119;52.516;13.508;2023-03-21T08:54:39;33.67;;;16.77;;
69822;SDS011;57119;52.516;13.508;2023-03-21T08:57:06;37.47;;;18.73;;
69822;SDS011;57119;52.516;13.508;2023-03-21T08:59:32;38.03;;;17.07;;
69822;SDS011;57119;52.516;13.508;2023-03-21T09:01:58;35.13;;;16.42;;
69822;SDS011;57119;52.516;13.508;2023-03-21T09:04:23;34.17;;;15.93;;
69822;SDS011;57119;52.516;13.508;2023-03-21T09:06:50;35.92;;;17.67;;
69822;SDS011;57119;52.516;13.508;2023-03-21T09:09:16;34.00;;;15.68;;
69822;SDS011;57119;52.516;13.508;2023-03-21T09:11:42;36.03;;;16.40;;
69822;SDS011;57119;52.516;13.508;2023-03-21T09:14:07;34.53;;;15.73;;
69822;SDS011;57119;52.516;13.508;2023-03-21T09:16:33;33.87;;;15.83;;
69822;SDS011;57119;52.516;13.508;2023-03-21T09:18:59;31.58;;;15.68;;
69822;SDS011;57119;52.516;13.508;2023-03-21T09:21:25;35.38;;;15.57;;
69822;SDS011;57119;52.516;13.508;2023-03-21T09:23:52;32.57;;;15.17;;
69822;SDS011;57119;52.516;13.508;2023-03-21T09:26:20;30.55;;;14.88;;
69822;SDS011;57119;52.516;13.508;2023-03-21T09:28:47;29.05;;;14.40;;
69822;SDS011;57119;52.516;13.508;2023-03-21T09:31:14;32.78;;;16.05;;
69822;SDS011;57119;52.516;13.508;2023-03-21T09:33:45;30.55;;;15.38;;
69822;SDS011;57119;52.516;13.508;2023-03-21T09:36:11;32.17;;;14.90;;
69822;SDS011;57119;52.516;13.508;2023-03-21T09:38:41;40.38;;;15.65;;
69822;SDS011;57119;52.516;13.508;2023-03-21T09:41:11;33.40;;;15.70;;
69822;SDS011;57119;52.516;13.508;2023-03-21T09:46:50;31.00;;;14.70;;
69822;SDS011;57119;52.516;13.508;2023-03-21T09:49:26;30.90;;;14.77;;
69822;SDS011;57119;52.516;13.508;2023-03-21T09:51:55;33.17;;;16.00;;
69822;SDS011;57119;52.516;13.508;2023-03-21T09:54:36;34.10;;;16.10;;
69822;SDS011;57119;52.516;13.508;2023-03-21T09:57:10;34.22;;;16.33;;
69822;SDS011;57119;52.516;13.508;2023-03-21T09:59:57;35.83;;;15.77;;
69822;SDS011;57119;52.516;13.508;2023-03-21T10:02:47;30.50;;;14.90;;
69822;SDS011;57119;52.516;13.508;2023-03-21T10:05:19;30.73;;;14.85;;
69822;SDS011;57119;52.516;13.508;2023-03-21T10:08:00;32.97;;;15.57;;
69822;SDS011;57119;52.516;13.508;2023-03-21T10:10:46;30.15;;;15.60;;
69822;SDS011;57119;52.516;13.508;2023-03-21T10:13:15;28.83;;;14.73;;
69822;SDS011;57119;52.516;13.508;2023-03-21T10:15:46;38.03;;;17.65;;
69822;SDS011;57119;52.516;13.508;2023-03-21T10:18:17;30.70;;;16.17;;
69822;SDS011;57119;52.516;13.508;2023-03-21T10:20:48;31.80;;;16.20;;
69822;SDS011;57119;52.516;13.508;2023-03-21T10:23:14;34.40;;;17.63;;
69822;SDS011;57119;52.516;13.508;2023-03-21T10:25:45;35.50;;;16.97;;
69822;SDS011;57119;52.516;13.508;2023-03-21T10:28:16;32.80;;;16.25;;
69822;SDS011;57119;52.516;13.508;2023-03-21T10:30:49;31.85;;;17.27;;
69822;SDS011;57119;52.516;13.508;2023-03-21T10:33:18;34.55;;;17.23;;
69822;SDS011;57119;52.516;13.508;2023-03-21T10:36:07;33.85;;;16.55;;
69822;SDS011;57119;52.516;13.508;2023-03-21T10:38:38;32.03;;;15.70;;
69822;SDS011;57119;52.516;13.508;2023-03-21T10:41:09;30.67;;;15.88;;
69822;SDS011;57119;52.516;13.508;2023-03-21T10:43:37;29.92;;;15.05;;
69822;SDS011;57119;52.516;13.508;2023-03-21T10:46:06;31.50;;;15.38;;
69822;SDS011;57119;52.516;13.508;2023-03-21T10:48:37;29.63;;;14.98;;
69822;SDS011;57119;52.516;13.508;2023-03-21T10:51:06;31.50;;;15.17;;
69822;SDS011;57119;52.516;13.508;2023-03-21T10:53:39;27.35;;;13.65;;
69822;SDS011;57119;52.516;13.508;2023-03-21T10:56:10;29.45;;;14.93;;
69822;SDS011;57119;52.516;13.508;2023-03-21T10:58:37;27.67;;;14.23;;
69822;SDS011;57119;52.516;13.508;2023-03-21T11:01:08;28.40;;;14.20;;
69822;SDS011;57119;52.516;13.508;2023-03-21T11:03:39;32.07;;;14.00;;
69822;SDS011;57119;52.516;13.508;2023-03-21T11:08:46;28.13;;;13.43;;
69822;SDS011;57119;52.516;13.508;2023-03-21T11:11:19;24.58;;;12.40;;
69822;SDS011;57119;52.516;13.508;2023-03-21T11:13:54;27.08;;;13.25;;
69822;SDS011;57119;52.516;13.508;2023-03-21T11:16:22;24.13;;;12.70;;
69822;SDS011;57119;52.516;13.508;2023-03-21T11:18:51;25.20;;;12.55;;
69822;SDS011;57119;52.516;13.508;2023-03-21T11:21:23;25.45;;;13.05;;
69822;SDS011;57119;52.516;13.508;2023-03-21T11:23:52;27.77;;;13.45;;
69822;SDS011;57119;52.516;13.508;2023-03-21T11:26:21;26.25;;;13.52;;
69822;SDS011;57119;52.516;13.508;2023-03-21T11:28:51;25.60;;;12.60;;
69822;SDS011;57119;52.516;13.508;2023-03-21T11:31:18;25.20;;;12.25;;
69822;SDS011;57119;52.516;13.508;2023-03-21T11:38:49;23.80;;;12.13;;
69822;SDS011;57119;52.516;13.508;2023-03-21T11:41:24;24.15;;;12.48;;
69822;SDS011;57119;52.516;13.508;2023-03-21T11:43:55;23.58;;;12.05;;
69822;SDS011;57119;52.516;13.508;2023-03-21T11:46:22;25.80;;;12.27;;
69822;SDS011;57119;52.516;13.508;2023-03-21T11:48:53;28.75;;;12.52;;
69822;SDS011;57119;52.516;13.508;2023-03-21T11:53:48;23.35;;;12.10;;
69822;SDS011;57119;52.516;13.508;2023-03-21T11:56:41;21.97;;;12.00;;
69822;SDS011;57119;52.516;13.508;2023-03-21T12:04:38;22.35;;;12.32;;
69822;SDS011;57119;52.516;13.508;2023-03-21T12:13:20;23.98;;;11.52;;
69822;SDS011;57119;52.516;13.508;2023-03-21T12:26:46;23.17;;;12.13;;
69822;SDS011;57119;52.516;13.508;2023-03-21T12:32:26;21.08;;;11.20;;
69822;SDS011;57119;52.516;13.508;2023-03-21T12:35:33;21.50;;;11.20;;
69822;SDS011;57119;52.516;13.508;2023-03-21T12:41:04;20.45;;;10.57;;
69822;SDS011;57119;52.516;13.508;2023-03-21T12:49:02;21.27;;;11.20;;
69822;SDS011;57119;52.516;13.508;2023-03-21T12:51:35;24.13;;;11.90;;
69822;SDS011;57119;52.516;13.508;2023-03-21T12:57:03;25.58;;;11.85;;
69822;SDS011;57119;52.516;13.508;2023-03-21T13:02:25;24.08;;;11.02;;
69822;SDS011;57119;52.516;13.508;2023-03-21T13:05:56;23.23;;;12.23;;
69822;SDS011;57119;52.516;13.508;2023-03-21T13:07:53;21.73;;;12.03;;
69822;SDS011;57119;52.516;13.508;2023-03-21T13:10:23;22.02;;;11.93;;
69822;SDS011;57119;52.516;13.508;2023-03-21T13:21:03;23.43;;;11.40;;
69822;SDS011;57119;52.516;13.508;2023-03-21T13:23:53;20.13;;;10.82;;
69822;SDS011;57119;52.516;13.508;2023-03-21T13:26:30;22.40;;;11.68;;
69822;SDS011;57119;52.516;13.508;2023-03-21T13:29:25;20.52;;;10.73;;
69822;SDS011;57119;52.516;13.508;2023-03-21T13:31:54;19.33;;;10.25;;
69822;SDS011;57119;52.516;13.508;2023-03-21T13:34:23;20.87;;;10.73;;
69822;SDS011;57119;52.516;13.508;2023-03-21T13:36:49;20.45;;;11.02;;
69822;SDS011;57119;52.516;13.508;2023-03-21T13:39:24;17.38;;;9.77;;
69822;SDS011;57119;52.516;13.508;2023-03-21T13:41:52;17.55;;;10.10;;
69822;SDS011;57119;52.516;13.508;2023-03-21T13:44:23;17.88;;;10.30;;
69822;SDS011;57119;52.516;13.508;2023-03-21T13:47:03;17.77;;;9.70;;
69822;SDS011;57119;52.516;13.508;2023-03-21T13:49:31;19.90;;;9.52;;
69822;SDS011;57119;52.516;13.508;2023-03-21T13:52:46;18.08;;;9.32;;
69822;SDS011;57119;52.516;13.508;2023-03-21T13:54:52;18.95;;;9.70;;
69822;SDS011;57119;52.516;13.508;2023-03-21T13:57:40;19.13;;;10.75;;
69822;SDS011;57119;52.516;13.508;2023-03-21T14:00:22;17.10;;;9.10;;
69822;SDS011;57119;52.516;13.508;2023-03-21T14:05:21;17.63;;;9.30;;
69822;SDS011;57119;52.516;13.508;2023-03-21T14:07:49;21.38;;;10.27;;
69822;SDS011;57119;52.516;13.508;2023-03-21T14:10:23;18.58;;;9.63;;
69822;SDS011;57119;52.516;13.508;2023-03-21T14:12:53;17.77;;;9.40;;
69822;SDS011;57119;52.516;13.508;2023-03-21T14:15:23;17.88;;;9.43;;
69822;SDS011;57119;52.516;13.508;2023-03-21T14:18:02;16.90;;;9.40;;
69822;SDS011;57119;52.516;13.508;2023-03-21T14:20:31;17.27;;;9.17;;
69822;SDS011;57119;52.516;13.508;2023-03-21T14:23:06;17.13;;;9.82;;
69822;SDS011;57119;52.516;13.508;2023-03-21T14:25:33;17.85;;;9.20;;
69822;SDS011;57119;52.516;13.508;2023-03-21T14:28:02;17.38;;;9.13;;
69822;SDS011;57119;52.516;13.508;2023-03-21T14:30:34;15.95;;;9.18;;
69822;SDS011;57119;52.516;13.508;2023-03-21T14:33:05;18.00;;;8.97;;
69822;SDS011;57119;52.516;13.508;2023-03-21T14:35:44;18.52;;;8.98;;
69822;SDS011;57119;52.516;13.508;2023-03-21T14:38:24;17.63;;;9.27;;
69822;SDS011;57119;52.516;13.508;2023-03-21T14:40:56;16.48;;;8.32;;
69822;SDS011;57119;52.516;13.508;2023-03-21T14:43:22;14.15;;;8.30;;
69822;SDS011;57119;52.516;13.508;2023-03-21T14:45:50;15.03;;;8.53;;
69822;SDS011;57119;52.516;13.508;2023-03-21T14:48:18;14.40;;;8.07;;
69822;SDS011;57119;52.516;13.508;2023-03-21T14:50:49;16.27;;;8.82;;
69822;SDS011;57119;52.516;13.508;2023-03-21T14:53:35;14.60;;;8.82;;
69822;SDS011;57119;52.516;13.508;2023-03-21T14:58:38;16.07;;;8.07;;
69822;SDS011;57119;52.516;13.508;2023-03-21T15:01:06;18.50;;;7.97;;
69822;SDS011;57119;52.516;13.508;2023-03-21T15:03:39;14.18;;;7.70;;
69822;SDS011;57119;52.516;13.508;2023-03-21T15:06:10;15.20;;;7.88;;
69822;SDS011;57119;52.516;13.508;2023-03-21T15:08:37;14.18;;;7.93;;
69822;SDS011;57119;52.516;13.508;2023-03-21T15:11:04;15.17;;;7.27;;
69822;SDS011;57119;52.516;13.508;2023-03-21T15:13:44;11.25;;;6.43;;
69822;SDS011;57119;52.516;13.508;2023-03-21T15:16:14;13.45;;;7.07;;
69822;SDS011;57119;52.516;13.508;2023-03-21T15:18:40;11.95;;;7.13;;
69822;SDS011;57119;52.516;13.508;2023-03-21T15:21:09;13.82;;;6.70;;
69822;SDS011;57119;52.516;13.508;2023-03-21T15:23:46;11.77;;;6.50;;
69822;SDS011;57119;52.516;13.508;2023-03-21T15:26:17;14.85;;;6.05;;
69822;SDS011;57119;52.516;13.508;2023-03-21T15:28:45;13.27;;;7.55;;
69822;SDS011;57119;52.516;13.508;2023-03-21T15:31:15;10.98;;;6.50;;
69822;SDS011;57119;52.516;13.508;2023-03-21T15:33:45;13.25;;;6.60;;
69822;SDS011;57119;52.516;13.508;2023-03-21T15:36:17;14.33;;;7.03;;
69822;SDS011;57119;52.516;13.508;2023-03-21T15:38:45;11.80;;;6.82;;
69822;SDS011;57119;52.516;13.508;2023-03-21T15:44:26;12.52;;;6.65;;
69822;SDS011;57119;52.516;13.508;2023-03-21T15:51:42;13.15;;;6.78;;
69822;SDS011;57119;52.516;13.508;2023-03-21T15:54:26;13.82;;;7.03;;
69822;SDS011;57119;52.516;13.508;2023-03-21T15:57:03;15.27;;;7.07;;
69822;SDS011;57119;52.516;13.508;2023-03-21T15:59:38;13.57;;;7.13;;
69822;SDS011;57119;52.516;13.508;2023-03-21T16:02:13;12.97;;;6.67;;
69822;SDS011;57119;52.516;13.508;2023-03-21T16:04:58;11.57;;;6.70;;
69822;SDS011;57119;52.516;13.508;2023-03-21T16:07:27;14.10;;;6.93;;
69822;SDS011;57119;52.516;13.508;2023-03-21T16:09:57;12.38;;;7.00;;
69822;SDS011;57119;52.516;13.508;2023-03-21T16:12:24;10.63;;;6.37;;
69822;SDS011;57119;52.516;13.508;2023-03-21T16:14:50;14.50;;;7.65;;
69822;SDS011;57119;52.516;13.508;2023-03-21T16:17:26;12.10;;;7.17;;
69822;SDS011;57119;52.516;13.508;2023-03-21T16:19:57;14.52;;;7.75;;